createdAt,value
2022-11-24T00:00:27.946Z,5.90
2022-11-24T00:03:24.661Z,5.90
2022-11-24T00:06:16.862Z,6.00
2022-11-24T00:08:50.775Z,6.00
2022-11-24T00:11:40.384Z,5.90
2022-11-24T00:14:18.724Z,5.70
2022-11-24T00:17:16.115Z,5.60
2022-11-24T00:20:15.631Z,5.50
2022-11-24T00:23:12.628Z,5.30
2022-11-24T00:29:27.581Z,5.30
2022-11-24T00:34:58.346Z,5.20
2022-11-24T00:37:37.367Z,5.40
2022-11-24T00:40:22.616Z,5.60
2022-11-24T00:43:20.249Z,5.70
2022-11-24T00:46:00.268Z,5.80
2022-11-24T00:48:36.051Z,5.80
2022-11-24T00:51:18.764Z,5.80
2022-11-24T00:54:12.120Z,5.80
2022-11-24T00:56:45.465Z,5.80
2022-11-24T00:59:28.413Z,6.00
2022-11-24T01:02:09.036Z,6.00
2022-11-24T01:04:40.651Z,5.80
2022-11-24T01:07:28.887Z,5.70
2022-11-24T01:10:08.406Z,5.80
2022-11-24T01:13:08.460Z,5.70
2022-11-24T01:16:04.619Z,5.60
2022-11-24T01:18:47.064Z,5.60
2022-11-24T01:21:19.234Z,5.60
2022-11-24T01:24:04.856Z,5.50
2022-11-24T01:26:47.758Z,5.60
2022-11-24T01:30:05.820Z,5.50
2022-11-24T01:33:09.002Z,5.60
2022-11-24T01:36:18.224Z,5.60
2022-11-24T01:38:57.985Z,5.50
2022-11-24T01:41:26.786Z,5.40
2022-11-24T01:43:56.257Z,5.60
2022-11-24T01:46:31.573Z,5.60
2022-11-24T01:49:05.070Z,5.60
2022-11-24T01:51:37.339Z,5.50
2022-11-24T01:54:39.671Z,5.40
2022-11-24T01:57:20.454Z,5.10
2022-11-24T01:59:50.764Z,5.10
2022-11-24T02:02:27.116Z,5.10
2022-11-24T02:04:56.485Z,5.10
2022-11-24T02:07:25.415Z,5.20
2022-11-24T02:10:00.920Z,5.20
2022-11-24T02:12:29.403Z,4.90
2022-11-24T02:14:58.145Z,4.80
2022-11-24T02:17:25.705Z,4.80
2022-11-24T02:19:59.211Z,4.80
2022-11-24T02:22:35.913Z,5.00
2022-11-24T02:25:42.458Z,5.10
2022-11-24T02:28:20.046Z,5.30
2022-11-24T02:30:48.372Z,5.40
2022-11-24T02:33:16.907Z,5.20
2022-11-24T02:35:47.179Z,4.90
2022-11-24T02:38:15.604Z,4.80
2022-11-24T02:40:48.632Z,4.90
2022-11-24T02:43:22.695Z,5.00
2022-11-24T02:45:50.409Z,5.00
2022-11-24T02:48:18.325Z,5.10
2022-11-24T02:50:48.610Z,5.00
2022-11-24T02:53:19.816Z,5.00
2022-11-24T02:55:58.030Z,5.00
2022-11-24T02:58:25.822Z,4.80
2022-11-24T03:00:57.741Z,4.80
2022-11-24T03:03:26.374Z,4.90
2022-11-24T03:06:07.624Z,4.80
2022-11-24T03:08:35.836Z,4.70
2022-11-24T03:11:09.191Z,4.60
2022-11-24T03:13:40.167Z,4.70
2022-11-24T03:16:18.166Z,4.70
2022-11-24T03:18:48.560Z,4.70
2022-11-24T03:21:18.163Z,4.80
2022-11-24T03:23:47.191Z,4.90
2022-11-24T03:26:21.380Z,5.00
2022-11-24T03:28:49.691Z,5.00
2022-11-24T03:31:20.070Z,4.90
2022-11-24T03:33:51.264Z,4.80
2022-11-24T03:36:22.155Z,4.70
2022-11-24T03:38:57.482Z,4.90
2022-11-24T03:41:29.092Z,5.00
2022-11-24T03:43:57.438Z,5.00
2022-11-24T03:46:25.706Z,5.00
2022-11-24T03:48:54.859Z,4.90
2022-11-24T03:54:25.323Z,5.10
2022-11-24T03:56:54.955Z,5.20
2022-11-24T03:59:31.058Z,5.10
2022-11-24T04:01:59.265Z,4.90
2022-11-24T04:04:36.844Z,4.80
2022-11-24T04:07:08.196Z,4.60
2022-11-24T04:09:39.120Z,4.70
2022-11-24T04:12:31.102Z,4.60
2022-11-24T04:15:04.886Z,4.60
2022-11-24T04:17:39.691Z,4.60
2022-11-24T04:20:11.298Z,4.70
2022-11-24T04:22:39.840Z,4.80
2022-11-24T04:25:11.403Z,4.90
2022-11-24T04:27:42.515Z,5.00
2022-11-24T04:30:10.490Z,5.00
2022-11-24T04:32:44.092Z,5.00
2022-11-24T04:35:13.293Z,5.10
2022-11-24T04:37:44.437Z,5.10
2022-11-24T04:40:17.272Z,5.10
2022-11-24T04:42:57.095Z,5.20
2022-11-24T04:45:25.524Z,5.20
2022-11-24T04:47:53.277Z,5.10
2022-11-24T04:50:21.067Z,5.00
2022-11-24T04:52:49.147Z,4.70
2022-11-24T04:55:17.213Z,4.70
2022-11-24T04:57:45.190Z,4.50
2022-11-24T05:00:13.982Z,4.40
2022-11-24T05:02:41.635Z,4.30
2022-11-24T05:05:11.938Z,4.30
2022-11-24T05:07:39.687Z,4.20
2022-11-24T05:10:26.580Z,4.20
2022-11-24T05:13:00.687Z,4.10
2022-11-24T05:15:35.928Z,4.00
2022-11-24T05:18:14.334Z,4.00
2022-11-24T05:20:45.318Z,4.20
2022-11-24T05:23:19.044Z,4.20
2022-11-24T05:25:47.902Z,4.10
2022-11-24T05:28:19.899Z,4.20
2022-11-24T05:30:47.888Z,3.90
2022-11-24T05:33:20.035Z,3.90
2022-11-24T05:35:54.900Z,3.90
2022-11-24T05:38:32.017Z,4.00
2022-11-24T05:41:05.555Z,3.90
2022-11-24T05:43:33.533Z,3.90
2022-11-24T05:46:04.668Z,3.80
2022-11-24T05:48:32.373Z,3.80
2022-11-24T05:51:05.149Z,3.80
2022-11-24T05:53:35.517Z,3.70
2022-11-24T05:56:04.734Z,3.80
2022-11-24T05:58:32.326Z,3.70
2022-11-24T06:00:59.892Z,3.60
2022-11-24T06:03:27.626Z,3.70
2022-11-24T06:06:01.613Z,3.70
2022-11-24T06:08:31.378Z,3.80
2022-11-24T06:11:18.612Z,3.60
2022-11-24T06:13:53.542Z,3.60
2022-11-24T06:16:30.149Z,3.60
2022-11-24T06:19:29.062Z,3.50
2022-11-24T06:25:02.378Z,3.70
2022-11-24T06:27:40.083Z,3.40
2022-11-24T06:30:34.466Z,3.30
2022-11-24T06:36:10.664Z,3.50
2022-11-24T06:44:48.693Z,3.60
2022-11-24T06:47:43.090Z,3.70
2022-11-24T06:50:14.023Z,3.90
2022-11-24T06:52:45.463Z,3.90
2022-11-24T06:55:30.976Z,4.20
2022-11-24T07:04:28.653Z,6.30
2022-11-24T07:06:56.318Z,6.70
2022-11-24T07:09:23.878Z,7.50
2022-11-24T07:11:51.419Z,7.80
2022-11-24T07:14:19.814Z,7.60
2022-11-24T07:16:47.367Z,7.80
2022-11-24T07:19:17.937Z,7.80
2022-11-24T07:21:47.821Z,8.00
2022-11-24T07:24:15.391Z,8.50
2022-11-24T07:26:42.954Z,8.50
2022-11-24T07:29:11.676Z,8.70
2022-11-24T07:31:39.848Z,8.30
2022-11-24T07:34:07.927Z,8.00
2022-11-24T07:36:35.847Z,8.10
2022-11-24T07:39:06.305Z,7.70
2022-11-24T07:41:34.338Z,8.00
2022-11-24T07:44:02.635Z,8.00
2022-11-24T07:46:30.816Z,7.70
2022-11-24T07:52:16.765Z,7.60
2022-11-24T07:54:47.768Z,7.30
2022-11-24T07:57:24.452Z,7.20
2022-11-24T08:16:13.476Z,7.70
2022-11-24T08:18:43.147Z,7.80
2022-11-24T08:21:14.927Z,8.10
2022-11-24T08:24:01.940Z,8.30
2022-11-24T08:58:54.838Z,9.50
2022-11-24T09:10:22.886Z,9.40
2022-11-24T10:09:06.076Z,11.90
2022-11-24T10:15:36.255Z,11.90
2022-11-24T10:18:25.092Z,12.00
2022-11-24T10:20:54.224Z,12.10
2022-11-24T10:23:53.177Z,12.10
2022-11-24T10:26:36.110Z,12.10
2022-11-24T10:29:33.239Z,12.20
2022-11-24T10:32:06.053Z,12.20
2022-11-24T10:34:50.082Z,12.20
2022-11-24T10:37:31.391Z,12.30
2022-11-24T10:43:17.555Z,12.30
2022-11-24T10:45:46.207Z,12.30
2022-11-24T10:48:26.664Z,12.20
2022-11-24T10:51:05.651Z,12.20
2022-11-24T10:53:35.674Z,12.30
2022-11-24T10:56:07.891Z,12.40
2022-11-24T10:58:38.561Z,12.50
2022-11-24T11:01:24.480Z,12.50
2022-11-24T11:03:58.304Z,12.50
2022-11-24T11:06:30.452Z,12.50
2022-11-24T11:09:07.676Z,12.60
2022-11-24T11:11:40.311Z,12.50
2022-11-24T11:14:13.097Z,12.50
2022-11-24T11:17:03.919Z,12.60
2022-11-24T11:19:56.890Z,12.60
2022-11-24T11:22:33.417Z,12.70
2022-11-24T11:25:10.156Z,12.70
2022-11-24T11:27:39.823Z,12.70
2022-11-24T11:36:12.087Z,12.80
2022-11-24T11:38:41.950Z,12.70
2022-11-24T11:41:20.061Z,12.80
2022-11-24T11:43:55.167Z,12.80
2022-11-24T11:46:29.060Z,12.90
2022-11-24T11:48:57.355Z,13.00
2022-11-24T11:51:34.426Z,13.00
2022-11-24T11:54:02.968Z,13.10
2022-11-24T11:56:35.795Z,13.10
2022-11-24T11:59:18.825Z,13.20
2022-11-24T12:01:49.656Z,13.40
2022-11-24T12:04:26.613Z,13.40
2022-11-24T12:07:27.486Z,13.50
2022-11-24T12:10:34.436Z,13.50
2022-11-24T12:13:32.375Z,13.80
2022-11-24T12:16:19.580Z,14.20
2022-11-24T12:19:21.121Z,14.80
2022-11-24T12:22:16.625Z,15.10
2022-11-24T12:25:03.439Z,15.70
2022-11-24T12:28:05.867Z,16.00
2022-11-24T12:30:59.301Z,15.70
2022-11-24T12:33:36.713Z,15.20
2022-11-24T12:36:39.918Z,14.60
2022-11-24T12:39:41.079Z,14.20
2022-11-24T12:42:46.411Z,13.90
2022-11-24T12:45:47.268Z,13.70
2022-11-24T12:48:48.108Z,13.80
2022-11-24T12:51:19.166Z,13.70
2022-11-24T12:53:49.759Z,13.60
2022-11-24T12:56:26.541Z,13.60
2022-11-24T12:59:10.303Z,13.60
2022-11-24T13:02:05.694Z,13.70
2022-11-24T13:04:59.010Z,13.80
2022-11-24T13:07:49.311Z,13.70
2022-11-24T13:10:53.732Z,13.60
2022-11-24T13:13:19.380Z,13.80
2022-11-24T13:19:15.181Z,14.00
2022-11-24T13:21:51.140Z,13.80
2022-11-24T13:24:40.997Z,13.70
2022-11-24T13:27:17.416Z,13.60
2022-11-24T13:30:00.817Z,13.50
2022-11-24T13:32:43.233Z,13.40
2022-11-24T13:35:15.855Z,13.40
2022-11-24T13:37:48.417Z,13.50
2022-11-24T13:40:18.351Z,13.50
2022-11-24T13:43:03.571Z,13.50
2022-11-24T13:45:41.370Z,13.50
2022-11-24T13:48:22.414Z,13.50
2022-11-24T13:50:50.384Z,13.50
2022-11-24T13:53:41.228Z,13.50
2022-11-24T13:56:17.704Z,13.60
2022-11-24T13:58:53.956Z,13.60
2022-11-24T14:01:44.793Z,13.60
2022-11-24T14:04:32.644Z,13.60
2022-11-24T14:07:09.888Z,13.60
2022-11-24T14:10:00.089Z,13.90
2022-11-24T14:12:31.533Z,14.10
2022-11-24T14:15:23.937Z,14.10
2022-11-24T14:17:51.793Z,14.40
2022-11-24T14:20:28.691Z,14.90
2022-11-24T14:39:05.260Z,15.50
2022-11-24T14:42:17.354Z,15.40
2022-11-24T14:44:57.203Z,15.30
2022-11-24T14:47:33.722Z,14.80
2022-11-24T14:50:36.004Z,14.40
2022-11-24T15:04:46.186Z,13.30
2022-11-24T15:11:08.871Z,12.80
2022-11-24T15:14:30.856Z,12.50
2022-11-24T15:31:56.253Z,11.00
2022-11-24T15:44:04.558Z,10.50
2022-11-24T16:11:14.498Z,10.00
2022-11-24T16:47:56.995Z,9.20
2022-11-24T16:51:03.165Z,9.00
2022-11-24T16:56:58.558Z,9.00
2022-11-24T16:59:26.281Z,8.90
2022-11-24T17:01:57.043Z,8.90
2022-11-24T17:04:26.208Z,8.90
2022-11-24T17:06:54.086Z,8.90
2022-11-24T17:09:22.753Z,8.90
2022-11-24T17:11:50.507Z,9.00
2022-11-24T17:14:24.146Z,9.00
2022-11-24T17:16:51.981Z,8.90
2022-11-24T17:19:26.801Z,8.70
2022-11-24T17:21:59.378Z,8.70
2022-11-24T17:24:29.964Z,8.70
2022-11-24T17:26:57.490Z,8.70
2022-11-24T17:29:27.166Z,8.70
2022-11-24T17:31:56.934Z,8.80
2022-11-24T17:34:40.783Z,8.70
2022-11-24T17:37:38.998Z,8.60
2022-11-24T17:40:34.534Z,8.70
2022-11-24T17:43:02.439Z,8.70
2022-11-24T17:45:30.780Z,8.60
2022-11-24T17:48:01.754Z,8.60
2022-11-24T17:50:29.317Z,8.50
2022-11-24T17:52:56.933Z,8.40
2022-11-24T17:55:24.451Z,8.50
2022-11-24T17:57:52.548Z,8.50
2022-11-24T18:00:20.273Z,8.40
2022-11-24T18:02:47.805Z,8.40
2022-11-24T18:05:15.554Z,8.40
2022-11-24T18:07:43.107Z,8.30
2022-11-24T18:10:11.172Z,8.30
2022-11-24T18:12:38.856Z,8.30
2022-11-24T18:15:06.988Z,8.20
2022-11-24T18:17:34.584Z,8.30
2022-11-24T18:20:02.265Z,8.30
2022-11-24T18:22:57.864Z,8.40
2022-11-24T18:25:17.216Z,8.30
2022-11-24T18:27:47.259Z,8.10
2022-11-24T18:30:15.468Z,8.20
2022-11-24T18:32:43.046Z,8.10
2022-11-24T18:35:10.811Z,8.20
2022-11-24T18:37:43.713Z,8.20
2022-11-24T18:40:11.698Z,8.10
2022-11-24T18:42:39.248Z,8.10
2022-11-24T18:45:07.484Z,8.10
2022-11-24T18:47:35.186Z,8.20
2022-11-24T18:50:02.747Z,8.20
2022-11-24T18:52:30.270Z,8.20
2022-11-24T18:55:03.814Z,8.10
2022-11-24T18:57:31.717Z,8.20
2022-11-24T18:59:59.356Z,8.20
2022-11-24T19:02:27.249Z,8.20
2022-11-24T19:04:55.061Z,8.10
2022-11-24T19:07:22.543Z,8.00
2022-11-24T19:09:50.142Z,7.80
2022-11-24T19:12:17.748Z,7.60
2022-11-24T19:14:45.271Z,7.50
2022-11-24T19:17:12.874Z,7.40
2022-11-24T19:19:40.400Z,7.50
2022-11-24T19:22:09.074Z,7.30
2022-11-24T19:24:39.708Z,7.30
2022-11-24T19:27:08.035Z,7.20
2022-11-24T19:29:40.314Z,7.40
2022-11-24T19:32:10.888Z,7.50
2022-11-24T19:34:39.104Z,7.70
2022-11-24T19:37:06.691Z,7.70
2022-11-24T19:39:34.533Z,7.70
2022-11-24T19:42:02.350Z,7.70
2022-11-24T19:44:29.856Z,7.70
2022-11-24T19:47:07.442Z,7.80
2022-11-24T19:49:34.972Z,7.80
2022-11-24T19:52:02.864Z,7.80
2022-11-24T19:54:30.664Z,7.80
2022-11-24T19:56:58.193Z,7.80
2022-11-24T19:59:26.542Z,7.80
2022-11-24T20:01:54.434Z,7.60
2022-11-24T20:04:22.209Z,7.60
2022-11-24T20:06:49.932Z,7.40
2022-11-24T20:09:18.686Z,7.30
2022-11-24T20:11:47.140Z,7.20
2022-11-24T20:14:18.182Z,7.10
2022-11-24T20:16:47.806Z,7.00
2022-11-24T20:19:16.830Z,6.90
2022-11-24T20:21:47.829Z,7.10
2022-11-24T20:24:23.469Z,7.30
2022-11-24T20:26:58.357Z,7.50
2022-11-24T20:29:28.592Z,7.50
2022-11-24T20:31:59.038Z,7.50
2022-11-24T20:34:27.686Z,7.20
2022-11-24T20:36:55.263Z,7.30
2022-11-24T20:39:26.494Z,7.00
2022-11-24T20:41:55.302Z,6.90
2022-11-24T20:44:23.752Z,7.00
2022-11-24T20:46:51.567Z,7.10
2022-11-24T20:49:21.960Z,7.20
2022-11-24T20:51:54.449Z,7.30
2022-11-24T20:54:22.136Z,7.40
2022-11-24T20:56:50.012Z,7.40
2022-11-24T20:59:21.663Z,7.50
2022-11-24T21:01:53.057Z,7.40
2022-11-24T21:04:25.637Z,7.40
2022-11-24T21:06:53.465Z,7.40
2022-11-24T21:09:21.006Z,7.40
2022-11-24T21:11:48.895Z,7.40
2022-11-24T21:14:16.598Z,7.20
2022-11-24T21:16:44.816Z,7.00
2022-11-24T21:19:14.836Z,7.00
2022-11-24T21:21:43.381Z,6.90
2022-11-24T21:24:16.491Z,6.80
2022-11-24T21:26:47.577Z,6.80
2022-11-24T21:29:18.955Z,6.70
2022-11-24T21:31:46.505Z,6.70
2022-11-24T21:34:15.772Z,6.70
2022-11-24T21:36:45.137Z,6.70
2022-11-24T21:39:14.443Z,6.60
2022-11-24T21:41:42.440Z,6.70
2022-11-24T21:44:13.201Z,6.70
2022-11-24T21:46:47.864Z,6.60
2022-11-24T21:49:17.291Z,6.50
2022-11-24T21:51:44.805Z,6.40
2022-11-24T21:54:12.715Z,6.40
2022-11-24T21:56:40.266Z,6.40
2022-11-24T21:59:10.291Z,6.50
2022-11-24T22:01:37.801Z,6.50
2022-11-24T22:04:05.474Z,6.60
2022-11-24T22:06:33.436Z,6.60
2022-11-24T22:09:01.267Z,6.60
2022-11-24T22:11:28.984Z,6.70
2022-11-24T22:13:56.731Z,6.80
2022-11-24T22:16:25.889Z,6.90
2022-11-24T22:18:53.638Z,6.80
2022-11-24T22:21:30.059Z,6.90
2022-11-24T22:23:57.781Z,7.00
2022-11-24T22:26:26.302Z,6.80
2022-11-24T22:28:55.268Z,6.70
2022-11-24T22:31:27.822Z,6.80
2022-11-24T22:33:57.174Z,6.90
2022-11-24T22:36:27.954Z,7.00
2022-11-24T22:39:03.131Z,7.20
2022-11-24T22:41:37.491Z,7.30
2022-11-24T22:44:07.705Z,7.30
2022-11-24T22:46:35.432Z,7.30
2022-11-24T22:49:04.886Z,7.30
2022-11-24T22:51:34.784Z,7.30
2022-11-24T22:54:04.255Z,7.00
2022-11-24T22:56:33.563Z,7.00
2022-11-24T22:59:02.478Z,7.00
2022-11-24T23:01:36.072Z,6.90
2022-11-24T23:04:04.300Z,6.50
2022-11-24T23:06:33.401Z,6.40
2022-11-24T23:09:02.309Z,6.50
2022-11-24T23:11:37.495Z,6.70
2022-11-24T23:14:19.798Z,6.80
2022-11-24T23:16:48.158Z,7.00
2022-11-24T23:19:15.905Z,7.10
2022-11-24T23:21:43.577Z,7.10
2022-11-24T23:24:11.731Z,7.10
2022-11-24T23:26:41.047Z,7.10
2022-11-24T23:29:10.163Z,7.10
2022-11-24T23:31:40.179Z,7.20
2022-11-24T23:34:08.190Z,7.20
2022-11-24T23:36:35.958Z,6.90
2022-11-24T23:39:09.277Z,6.80
2022-11-24T23:41:37.151Z,6.60
2022-11-24T23:44:04.958Z,6.70
2022-11-24T23:46:32.818Z,6.80
2022-11-24T23:49:00.591Z,6.90
2022-11-24T23:51:30.477Z,6.90
2022-11-24T23:53:59.462Z,6.90
2022-11-24T23:56:33.115Z,6.90
2022-11-24T23:59:05.455Z,6.80
